createdAt,value
2018-12-05T00:01:12.199Z,98.90
2018-12-05T00:03:40.356Z,98.90
2018-12-05T00:06:08.530Z,99.30
2018-12-05T00:08:36.773Z,99.00
2018-12-05T00:11:04.952Z,99.00
2018-12-05T00:13:33.179Z,98.90
2018-12-05T00:16:01.392Z,99.00
2018-12-05T00:18:29.495Z,98.90
2018-12-05T00:20:57.664Z,99.00
2018-12-05T00:23:25.803Z,99.00
2018-12-05T00:25:53.935Z,98.90
2018-12-05T00:28:22.084Z,99.00
2018-12-05T00:30:50.231Z,98.90
2018-12-05T00:33:18.361Z,98.90
2018-12-05T00:35:46.601Z,98.90
2018-12-05T00:38:14.740Z,98.90
2018-12-05T00:40:42.960Z,98.90
2018-12-05T00:43:11.099Z,98.90
2018-12-05T00:45:39.253Z,99.30
2018-12-05T00:48:07.382Z,98.90
2018-12-05T00:50:35.524Z,98.90
2018-12-05T00:53:03.722Z,98.90
2018-12-05T00:55:31.851Z,98.90
2018-12-05T00:57:59.977Z,98.80
2018-12-05T01:00:28.172Z,98.60
2018-12-05T01:02:56.396Z,98.50
2018-12-05T01:05:24.569Z,98.30
2018-12-05T01:07:52.780Z,98.30
2018-12-05T01:10:20.939Z,98.30
2018-12-05T01:12:49.160Z,98.30
2018-12-05T01:15:17.355Z,98.50
2018-12-05T01:17:45.587Z,98.70
2018-12-05T01:20:13.779Z,99.00
2018-12-05T01:22:41.957Z,98.90
2018-12-05T01:25:10.248Z,99.00
2018-12-05T01:27:38.388Z,99.00
2018-12-05T01:30:06.685Z,99.00
2018-12-05T01:32:34.907Z,99.00
2018-12-05T01:35:03.116Z,99.10
2018-12-05T01:37:31.261Z,99.10
2018-12-05T01:39:59.400Z,99.10
2018-12-05T01:42:27.629Z,99.10
2018-12-05T01:44:56.755Z,99.10
2018-12-05T01:47:25.042Z,99.20
2018-12-05T01:49:53.277Z,99.20
2018-12-05T01:52:21.487Z,99.20
2018-12-05T01:54:49.790Z,99.10
2018-12-05T01:57:17.977Z,99.20
2018-12-05T01:59:46.143Z,99.20
2018-12-05T02:02:14.432Z,99.10
2018-12-05T02:04:42.577Z,99.10
2018-12-05T02:07:10.828Z,99.10
2018-12-05T02:09:39.312Z,99.10
2018-12-05T02:12:07.569Z,99.10
2018-12-05T02:14:35.711Z,99.10
2018-12-05T02:17:03.948Z,99.10
2018-12-05T02:19:32.090Z,99.10
2018-12-05T02:22:00.353Z,99.10
2018-12-05T02:24:28.573Z,99.10
2018-12-05T02:26:56.743Z,99.10
2018-12-05T02:29:29.143Z,99.00
2018-12-05T02:31:57.380Z,98.80
2018-12-05T02:34:25.516Z,98.70
2018-12-05T02:36:53.762Z,98.60
2018-12-05T02:39:21.912Z,98.50
2018-12-05T02:41:50.239Z,98.50
2018-12-05T02:44:18.400Z,98.50
2018-12-05T02:46:46.546Z,98.70
2018-12-05T02:49:14.777Z,98.80
2018-12-05T02:51:42.971Z,98.90
2018-12-05T02:54:11.144Z,99.00
2018-12-05T02:56:39.275Z,99.00
2018-12-05T02:59:07.520Z,99.10
2018-12-05T03:01:35.698Z,99.10
2018-12-05T03:04:04.108Z,99.10
2018-12-05T03:06:32.261Z,99.00
2018-12-05T03:09:00.501Z,99.00
2018-12-05T03:11:28.741Z,99.00
2018-12-05T03:13:56.897Z,99.00
2018-12-05T03:16:25.109Z,98.90
2018-12-05T03:18:53.274Z,98.90
2018-12-05T03:21:21.412Z,99.00
2018-12-05T03:23:49.548Z,99.00
2018-12-05T03:26:17.709Z,98.90
2018-12-05T03:28:46.140Z,98.90
2018-12-05T03:31:14.268Z,99.00
2018-12-05T03:33:42.509Z,99.00
2018-12-05T03:36:10.748Z,99.00
2018-12-05T03:38:38.960Z,99.00
2018-12-05T03:41:07.118Z,99.00
2018-12-05T03:43:35.259Z,99.00
2018-12-05T03:46:03.482Z,99.00
2018-12-05T03:48:31.711Z,99.00
2018-12-05T03:50:59.947Z,99.10
2018-12-05T03:53:28.204Z,99.10
2018-12-05T03:55:56.367Z,99.50
2018-12-05T03:58:24.508Z,99.20
2018-12-05T04:00:52.748Z,99.20
2018-12-05T04:03:20.989Z,99.20
2018-12-05T04:05:49.217Z,99.50
2018-12-05T04:08:17.519Z,99.30
2018-12-05T04:10:45.787Z,99.30
2018-12-05T04:13:14.068Z,99.30
2018-12-05T04:15:42.292Z,99.60
2018-12-05T04:18:10.526Z,99.30
2018-12-05T04:20:38.697Z,99.40
2018-12-05T04:23:06.871Z,99.50
2018-12-05T04:25:35.022Z,99.50
2018-12-05T04:28:03.847Z,99.50
2018-12-05T04:30:32.089Z,99.50
2018-12-05T04:33:00.226Z,99.50
2018-12-05T04:35:28.464Z,99.60
2018-12-05T04:37:56.720Z,99.70
2018-12-05T04:40:24.904Z,99.70
2018-12-05T04:42:53.056Z,99.70
2018-12-05T04:45:21.246Z,99.70
2018-12-05T04:47:49.410Z,99.70
2018-12-05T04:50:17.573Z,99.70
2018-12-05T04:52:45.697Z,99.70
2018-12-05T04:55:13.936Z,99.60
2018-12-05T04:57:42.102Z,99.60
2018-12-05T05:00:10.016Z,99.50
2018-12-05T05:02:38.172Z,99.60
2018-12-05T05:05:06.412Z,99.60
2018-12-05T05:07:34.557Z,99.70
2018-12-05T05:10:04.035Z,99.60
2018-12-05T05:12:32.184Z,99.90
2018-12-05T05:15:00.338Z,99.60
2018-12-05T05:17:28.565Z,99.90
2018-12-05T05:19:56.796Z,99.70
2018-12-05T05:22:24.964Z,99.70
2018-12-05T05:24:53.124Z,99.40
2018-12-05T05:27:21.320Z,99.70
2018-12-05T05:29:49.567Z,99.70
2018-12-05T05:32:17.788Z,99.70
2018-12-05T05:34:45.954Z,99.70
2018-12-05T05:37:14.276Z,99.60
2018-12-05T05:39:42.428Z,99.50
2018-12-05T05:42:10.741Z,99.40
2018-12-05T05:44:39.025Z,99.30
2018-12-05T05:47:07.168Z,99.30
2018-12-05T05:49:36.147Z,98.90
2018-12-05T05:52:04.453Z,99.30
2018-12-05T05:54:32.776Z,99.30
2018-12-05T05:57:00.973Z,99.70
2018-12-05T05:59:29.158Z,99.40
2018-12-05T06:01:57.318Z,99.40
2018-12-05T06:04:25.486Z,99.40
2018-12-05T06:06:53.878Z,99.50
2018-12-05T06:09:22.130Z,99.40
2018-12-05T06:11:50.267Z,99.30
2018-12-05T06:14:18.439Z,99.20
2018-12-05T06:16:46.591Z,99.20
2018-12-05T06:19:14.752Z,99.20
2018-12-05T06:21:42.912Z,99.20
2018-12-05T06:24:11.063Z,99.10
2018-12-05T06:26:39.208Z,99.10
2018-12-05T06:29:07.353Z,99.10
2018-12-05T06:31:35.512Z,99.20
2018-12-05T06:34:03.835Z,99.20
2018-12-05T06:36:32.092Z,99.20
2018-12-05T06:39:00.240Z,99.20
2018-12-05T06:41:28.468Z,99.20
2018-12-05T06:43:56.609Z,99.30
2018-12-05T06:46:24.758Z,99.40
2018-12-05T06:48:52.937Z,99.40
2018-12-05T06:51:21.179Z,99.40
2018-12-05T06:53:49.416Z,99.40
2018-12-05T06:56:17.568Z,99.40
2018-12-05T06:58:45.723Z,99.40
2018-12-05T07:01:13.869Z,99.50
2018-12-05T07:03:42.097Z,99.50
2018-12-05T07:06:10.260Z,99.50
2018-12-05T07:08:38.449Z,99.50
2018-12-05T07:13:41.150Z,99.50
2018-12-05T07:16:09.402Z,99.50
2018-12-05T07:18:37.664Z,99.50
2018-12-05T07:21:06.001Z,99.50
2018-12-05T07:23:34.167Z,99.50
2018-12-05T07:26:02.315Z,99.50
2018-12-05T07:28:30.487Z,99.40
2018-12-05T07:30:58.793Z,99.30
2018-12-05T07:33:27.012Z,99.40
2018-12-05T07:35:55.248Z,99.30
2018-12-05T07:38:23.408Z,99.30
2018-12-05T07:40:51.616Z,99.40
2018-12-05T07:43:19.771Z,99.50
2018-12-05T07:45:47.969Z,99.60
2018-12-05T07:48:16.220Z,99.70
2018-12-05T07:50:44.365Z,99.80
2018-12-05T07:53:12.525Z,99.90
2018-12-05T07:55:40.696Z,99.90
2018-12-05T07:58:08.876Z,99.90
2018-12-05T08:00:37.055Z,99.90
2018-12-05T08:03:05.208Z,99.90
2018-12-05T08:05:33.364Z,99.90
2018-12-05T08:08:01.520Z,99.80
2018-12-05T08:10:29.676Z,99.40
2018-12-05T08:12:57.833Z,99.20
2018-12-05T08:15:26.057Z,99.20
2018-12-05T08:17:54.219Z,99.10
2018-12-05T08:20:22.353Z,99.00
2018-12-05T08:22:50.496Z,99.00
2018-12-05T08:25:18.721Z,99.00
2018-12-05T08:27:46.867Z,99.30
2018-12-05T08:30:15.177Z,99.00
2018-12-05T08:32:43.352Z,99.10
2018-12-05T08:35:11.249Z,98.80
2018-12-05T08:37:39.414Z,98.70
2018-12-05T08:40:14.233Z,98.40
2018-12-05T08:42:42.391Z,98.40
2018-12-05T08:45:10.561Z,98.40
2018-12-05T08:47:38.748Z,98.40
2018-12-05T08:50:07.065Z,98.40
2018-12-05T08:52:35.200Z,98.10
2018-12-05T08:55:03.428Z,97.90
2018-12-05T08:57:31.581Z,97.60
2018-12-05T08:59:59.730Z,97.60
2018-12-05T09:02:27.888Z,96.90
2018-12-05T09:04:56.036Z,96.90
2018-12-05T09:07:24.185Z,96.70
2018-12-05T09:09:52.421Z,96.60
2018-12-05T09:12:20.575Z,96.50
2018-12-05T09:14:48.724Z,96.30
2018-12-05T09:17:16.892Z,96.00
2018-12-05T09:19:45.028Z,96.20
2018-12-05T09:24:47.692Z,96.10
2018-12-05T09:27:15.854Z,95.80
2018-12-05T09:29:44.081Z,95.60
2018-12-05T09:32:12.233Z,95.60
2018-12-05T09:34:40.392Z,95.90
2018-12-05T09:37:08.621Z,95.50
2018-12-05T09:39:36.747Z,94.50
2018-12-05T09:42:04.983Z,94.70
2018-12-05T09:44:33.204Z,94.70
2018-12-05T09:47:01.383Z,94.80
2018-12-05T09:49:29.527Z,94.60
2018-12-05T09:51:57.692Z,94.50
2018-12-05T09:54:25.937Z,94.30
2018-12-05T09:56:54.241Z,94.50
2018-12-05T09:59:22.420Z,94.50
2018-12-05T10:01:50.733Z,94.50
2018-12-05T10:04:18.888Z,94.00
2018-12-05T10:06:47.136Z,94.30
2018-12-05T10:09:15.277Z,94.60
2018-12-05T10:11:43.524Z,94.40
2018-12-05T10:14:11.777Z,94.30
2018-12-05T10:16:39.939Z,93.60
2018-12-05T10:19:08.185Z,93.80
2018-12-05T10:21:36.354Z,93.30
2018-12-05T10:24:04.663Z,93.30
2018-12-05T10:26:32.800Z,93.20
2018-12-05T10:29:00.988Z,92.60
2018-12-05T10:31:29.134Z,92.40
2018-12-05T10:33:57.276Z,92.50
2018-12-05T10:36:25.415Z,92.70
2018-12-05T10:38:53.567Z,92.10
2018-12-05T10:41:21.720Z,91.90
2018-12-05T10:43:49.936Z,92.10
2018-12-05T10:46:18.165Z,91.50
2018-12-05T10:48:46.290Z,91.70
2018-12-05T10:51:14.451Z,91.70
2018-12-05T10:53:42.589Z,91.80
2018-12-05T10:56:10.720Z,91.70
2018-12-05T10:58:38.936Z,91.80
2018-12-05T11:01:12.827Z,91.80
2018-12-05T11:03:41.036Z,91.60
2018-12-05T11:06:14.473Z,91.90
2018-12-05T11:08:47.978Z,91.80
2018-12-05T11:11:21.660Z,91.60
2018-12-05T11:13:55.524Z,91.00
2018-12-05T11:16:29.161Z,91.10
2018-12-05T11:19:02.912Z,91.10
2018-12-05T11:21:36.504Z,90.60
2018-12-05T11:24:37.523Z,90.70
2018-12-05T11:27:05.910Z,90.10
2018-12-05T11:29:34.278Z,89.00
2018-12-05T11:32:02.577Z,88.60
2018-12-05T11:34:30.716Z,88.30
2018-12-05T11:36:58.865Z,88.00
2018-12-05T11:39:27.004Z,88.10
2018-12-05T11:41:55.141Z,87.70
2018-12-05T11:44:23.257Z,87.30
2018-12-05T11:46:51.476Z,87.00
2018-12-05T11:49:19.716Z,87.30
2018-12-05T11:51:47.937Z,86.50
2018-12-05T11:54:16.104Z,87.10
2018-12-05T11:56:44.245Z,87.60
2018-12-05T11:59:12.474Z,87.90
2018-12-05T12:01:40.673Z,88.90
2018-12-05T12:04:08.918Z,87.90
2018-12-05T12:06:37.080Z,86.80
2018-12-05T12:09:08.343Z,85.80
2018-12-05T12:11:37.224Z,84.70
2018-12-05T12:14:05.528Z,84.40
2018-12-05T12:16:33.729Z,83.70
2018-12-05T12:19:01.942Z,83.30
2018-12-05T12:21:30.391Z,81.90
2018-12-05T12:23:58.555Z,79.80
2018-12-05T12:26:32.995Z,79.70
2018-12-05T12:28:56.959Z,79.40
2018-12-05T12:31:25.212Z,79.00
2018-12-05T12:33:53.899Z,79.30
2018-12-05T12:36:22.224Z,80.00
2018-12-05T12:38:50.786Z,80.70
2018-12-05T12:41:20.253Z,80.10
2018-12-05T12:43:48.926Z,80.70
2018-12-05T12:46:17.591Z,81.00
2018-12-05T12:48:46.135Z,82.10
2018-12-05T12:51:14.299Z,82.00
2018-12-05T12:53:42.831Z,82.70
2018-12-05T12:56:13.110Z,83.00
2018-12-05T12:58:43.408Z,82.50
2018-12-05T13:03:49.504Z,82.70
2018-12-05T13:06:17.651Z,82.60
2018-12-05T13:08:45.978Z,83.00
2018-12-05T13:11:14.200Z,83.80
2018-12-05T13:13:42.352Z,84.20
2018-12-05T13:16:10.484Z,84.20
2018-12-05T13:18:38.719Z,84.10
2018-12-05T13:21:06.866Z,84.60
2018-12-05T13:23:35.022Z,82.70
2018-12-05T13:26:03.160Z,80.70
2018-12-05T13:28:31.346Z,80.50
2018-12-05T13:30:59.682Z,79.30
2018-12-05T13:33:27.878Z,79.30
2018-12-05T13:35:56.101Z,79.00
2018-12-05T13:38:24.241Z,79.60
2018-12-05T13:40:52.388Z,79.90
2018-12-05T13:43:20.528Z,80.30
2018-12-05T13:45:48.674Z,80.60
2018-12-05T13:48:16.944Z,80.20
2018-12-05T13:50:45.183Z,79.20
2018-12-05T13:53:13.485Z,79.90
2018-12-05T13:55:41.611Z,80.20
2018-12-05T13:58:09.788Z,80.30
2018-12-05T14:00:37.958Z,80.30
2018-12-05T14:03:06.086Z,81.00
2018-12-05T14:05:34.217Z,82.00
2018-12-05T14:08:02.345Z,83.10
2018-12-05T14:10:30.495Z,84.10
2018-12-05T14:12:59.122Z,85.70
2018-12-05T14:15:34.206Z,87.40
2018-12-05T14:18:03.292Z,89.50
2018-12-05T14:20:31.607Z,90.40
2018-12-05T14:22:59.746Z,91.00
2018-12-05T14:25:27.931Z,91.70
2018-12-05T14:27:56.185Z,92.10
2018-12-05T14:30:24.321Z,92.40
2018-12-05T14:32:52.585Z,92.90
2018-12-05T14:35:20.733Z,93.20
2018-12-05T14:37:48.904Z,93.40
2018-12-05T14:40:17.031Z,93.40
2018-12-05T14:42:45.143Z,93.30
2018-12-05T14:45:13.358Z,93.00
2018-12-05T14:47:41.539Z,93.00
2018-12-05T14:50:09.789Z,92.90
2018-12-05T14:52:37.905Z,92.70
2018-12-05T14:55:06.226Z,92.60
2018-12-05T14:57:34.400Z,92.60
2018-12-05T15:00:02.712Z,92.50
2018-12-05T15:02:30.840Z,92.40
2018-12-05T15:04:59.078Z,92.40
2018-12-05T15:07:27.186Z,92.70
2018-12-05T15:09:55.421Z,92.60
2018-12-05T15:12:23.543Z,92.60
2018-12-05T15:14:51.757Z,92.80
2018-12-05T15:17:19.864Z,92.90
2018-12-05T15:19:48.094Z,93.00
2018-12-05T15:22:16.237Z,93.30
2018-12-05T15:24:44.442Z,93.60
2018-12-05T15:27:12.600Z,93.80
2018-12-05T15:29:40.772Z,94.10
2018-12-05T15:32:08.953Z,94.20
2018-12-05T15:34:37.081Z,94.30
2018-12-05T15:37:05.342Z,94.30
2018-12-05T15:39:33.473Z,94.30
2018-12-05T15:42:01.712Z,94.60
2018-12-05T15:44:29.835Z,94.80
2018-12-05T15:46:57.992Z,94.80
2018-12-05T15:49:26.185Z,95.10
2018-12-05T15:51:54.373Z,95.20
2018-12-05T15:54:22.660Z,95.20
2018-12-05T15:56:50.869Z,95.30
2018-12-05T15:59:19.083Z,95.40
2018-12-05T16:01:47.219Z,95.30
2018-12-05T16:04:15.353Z,95.30
2018-12-05T16:06:43.476Z,95.30
2018-12-05T16:09:11.691Z,95.40
2018-12-05T16:11:39.900Z,95.30
2018-12-05T16:14:08.094Z,95.30
2018-12-05T16:16:36.237Z,95.40
2018-12-05T16:19:04.489Z,95.40
2018-12-05T16:21:32.728Z,95.60
2018-12-05T16:24:00.988Z,95.80
2018-12-05T16:26:29.216Z,95.90
2018-12-05T16:28:57.364Z,95.90
2018-12-05T16:31:25.582Z,95.90
2018-12-05T16:33:53.696Z,95.70
2018-12-05T16:36:21.920Z,95.50
2018-12-05T16:38:50.043Z,95.60
2018-12-05T16:41:18.259Z,95.50
2018-12-05T16:43:46.397Z,95.50
2018-12-05T16:46:14.578Z,95.60
2018-12-05T16:48:42.731Z,95.80
2018-12-05T16:51:10.928Z,95.70
2018-12-05T16:53:39.135Z,95.70
2018-12-05T16:56:07.516Z,95.80
2018-12-05T16:58:35.704Z,95.80
2018-12-05T17:01:04.084Z,95.60
2018-12-05T17:03:32.276Z,95.40
2018-12-05T17:06:00.645Z,95.30
2018-12-05T17:08:28.775Z,95.50
2018-12-05T17:10:56.913Z,95.40
2018-12-05T17:13:25.027Z,95.30
2018-12-05T17:15:53.232Z,95.10
2018-12-05T17:18:21.344Z,95.00
2018-12-05T17:20:49.478Z,95.10
2018-12-05T17:23:17.612Z,95.10
2018-12-05T17:25:45.752Z,95.40
2018-12-05T17:28:13.876Z,95.10
2018-12-05T17:30:42.092Z,95.00
2018-12-05T17:33:10.222Z,95.10
2018-12-05T17:35:38.354Z,95.10
2018-12-05T17:38:06.460Z,95.10
2018-12-05T17:40:34.584Z,95.20
2018-12-05T17:43:02.803Z,95.30
2018-12-05T17:45:30.996Z,95.20
2018-12-05T17:47:59.142Z,95.10
2018-12-05T17:50:27.253Z,95.10
2018-12-05T17:52:55.399Z,95.30
2018-12-05T17:55:23.731Z,95.60
2018-12-05T17:57:51.866Z,95.50
2018-12-05T18:00:19.989Z,95.70
2018-12-05T18:02:48.232Z,95.80
2018-12-05T18:05:16.376Z,95.90
2018-12-05T18:07:44.552Z,96.10
2018-12-05T18:10:12.747Z,96.10
2018-12-05T18:12:40.883Z,96.30
2018-12-05T18:15:09.156Z,96.50
2018-12-05T18:17:37.314Z,96.10
2018-12-05T18:20:07.645Z,96.30
2018-12-05T18:22:35.869Z,96.00
2018-12-05T18:25:04.151Z,96.10
2018-12-05T18:27:32.296Z,96.00
2018-12-05T18:30:00.453Z,95.90
2018-12-05T18:32:28.767Z,95.80
2018-12-05T18:34:56.909Z,95.70
2018-12-05T18:37:25.172Z,95.80
2018-12-05T18:39:53.668Z,95.90
2018-12-05T18:42:21.954Z,96.00
2018-12-05T18:44:50.055Z,96.10
2018-12-05T18:47:18.262Z,96.30
2018-12-05T18:49:46.668Z,96.40
2018-12-05T18:52:14.937Z,96.70
2018-12-05T18:54:43.154Z,96.90
2018-12-05T18:57:11.392Z,96.90
2018-12-05T18:59:39.605Z,96.90
2018-12-05T19:02:07.853Z,96.90
2018-12-05T19:04:36.004Z,96.80
2018-12-05T19:07:04.304Z,96.80
2018-12-05T19:09:32.464Z,96.70
2018-12-05T19:12:00.829Z,96.70
2018-12-05T19:14:34.436Z,96.70
2018-12-05T19:17:02.637Z,96.70
2018-12-05T19:19:30.811Z,96.70
2018-12-05T19:21:59.436Z,96.70
2018-12-05T19:24:27.587Z,96.60
2018-12-05T19:26:55.781Z,96.90
2018-12-05T19:29:24.108Z,96.50
2018-12-05T19:31:52.291Z,96.50
2018-12-05T19:34:20.589Z,96.50
2018-12-05T19:36:48.868Z,96.40
2018-12-05T19:39:17.316Z,96.50
2018-12-05T19:41:45.544Z,96.40
2018-12-05T19:44:13.771Z,96.50
2018-12-05T19:46:42.110Z,96.50
2018-12-05T19:49:10.249Z,96.50
2018-12-05T19:51:38.377Z,96.50
2018-12-05T19:54:06.537Z,96.40
2018-12-05T19:56:34.882Z,96.50
2018-12-05T19:59:03.098Z,96.50
2018-12-05T20:01:31.335Z,96.50
2018-12-05T20:03:59.527Z,96.60
2018-12-05T20:06:27.936Z,96.60
2018-12-05T20:08:56.064Z,96.70
2018-12-05T20:11:24.487Z,96.70
2018-12-05T20:13:52.736Z,96.90
2018-12-05T20:16:21.040Z,96.90
2018-12-05T20:18:49.270Z,97.00
2018-12-05T20:21:17.592Z,97.10
2018-12-05T20:23:45.786Z,97.10
2018-12-05T20:26:13.952Z,97.10
2018-12-05T20:28:42.339Z,97.40
2018-12-05T20:31:10.757Z,97.10
2018-12-05T20:33:38.981Z,97.00
2018-12-05T20:36:07.126Z,97.10
2018-12-05T20:38:35.376Z,97.10
2018-12-05T20:41:04.003Z,97.50
2018-12-05T20:43:32.213Z,97.20
2018-12-05T20:46:00.331Z,97.20
2018-12-05T20:48:28.488Z,97.30
2018-12-05T20:50:56.655Z,97.20
2018-12-05T20:53:24.911Z,97.20
2018-12-05T20:55:53.056Z,97.20
2018-12-05T20:58:21.629Z,97.20
2018-12-05T21:00:50.149Z,97.30
2018-12-05T21:03:18.468Z,97.30
2018-12-05T21:05:47.146Z,97.30
2018-12-05T21:08:15.364Z,97.40
2018-12-05T21:10:43.490Z,97.30
2018-12-05T21:13:11.652Z,97.30
2018-12-05T21:15:40.084Z,97.30
2018-12-05T21:18:08.549Z,97.30
2018-12-05T21:20:36.832Z,97.40
2018-12-05T21:23:05.301Z,97.50
2018-12-05T21:25:33.514Z,97.60
2018-12-05T21:28:01.917Z,97.70
2018-12-05T21:30:30.151Z,97.80
2018-12-05T21:32:58.568Z,97.90
2018-12-05T21:35:26.803Z,97.80
2018-12-05T21:37:55.269Z,97.70
2018-12-05T21:40:23.663Z,97.60
2018-12-05T21:42:51.878Z,97.50
2018-12-05T21:45:20.476Z,97.50
2018-12-05T21:47:48.624Z,97.30
2018-12-05T21:50:16.812Z,97.30
2018-12-05T21:52:45.345Z,97.30
2018-12-05T21:55:13.510Z,97.40
2018-12-05T21:57:41.961Z,97.40
2018-12-05T22:00:12.155Z,97.60
2018-12-05T22:02:40.406Z,97.90
2018-12-05T22:05:08.931Z,98.10
2018-12-05T22:07:37.167Z,98.10
2018-12-05T22:10:07.198Z,98.00
2018-12-05T22:12:35.323Z,98.00
2018-12-05T22:15:04.039Z,98.00
2018-12-05T22:17:32.436Z,98.00
2018-12-05T22:20:00.786Z,98.10
2018-12-05T22:22:29.369Z,98.30
2018-12-05T22:24:57.546Z,98.70
2018-12-05T22:27:25.986Z,98.80
2018-12-05T22:29:54.629Z,98.80
2018-12-05T22:32:22.884Z,98.60
2018-12-05T22:34:51.240Z,98.60
2018-12-05T22:37:19.613Z,98.60
2018-12-05T22:39:48.052Z,98.60
2018-12-05T22:42:16.340Z,98.60
2018-12-05T22:44:44.527Z,98.70
2018-12-05T22:47:12.875Z,98.70
2018-12-05T22:49:41.060Z,98.70
2018-12-05T22:52:09.682Z,98.60
2018-12-05T22:54:38.114Z,99.00
2018-12-05T22:57:15.868Z,98.70
2018-12-05T22:59:44.015Z,98.70
2018-12-05T23:02:12.700Z,98.80
2018-12-05T23:04:41.046Z,98.80
2018-12-05T23:07:09.282Z,98.80
2018-12-05T23:09:37.702Z,98.80
2018-12-05T23:12:06.154Z,98.80
2018-12-05T23:14:34.454Z,98.80
2018-12-05T23:17:02.622Z,98.80
2018-12-05T23:19:31.173Z,98.70
2018-12-05T23:21:59.347Z,98.70
2018-12-05T23:24:27.476Z,98.70
2018-12-05T23:26:55.876Z,98.70
2018-12-05T23:29:24.220Z,98.60
2018-12-05T23:31:52.649Z,98.60
2018-12-05T23:34:20.936Z,98.50
2018-12-05T23:36:49.305Z,98.50
2018-12-05T23:39:17.576Z,98.50
2018-12-05T23:41:45.886Z,98.50
2018-12-05T23:44:14.186Z,98.40
2018-12-05T23:46:42.335Z,98.30
2018-12-05T23:49:10.631Z,98.20
2018-12-05T23:51:38.833Z,98.10
2018-12-05T23:54:07.172Z,98.10
2018-12-05T23:56:35.605Z,98.10
2018-12-05T23:59:03.859Z,98.10
